Time;durP1;ratioP1;P1;durP2;ratioP2;P2;SDS_P1;SDS_P2;PMS_P1;PMS_P2;Temp;Humidity;BMP_temperature;BMP_pressure;BME280_temperature;BME280_humidity;BME280_pressure;Samples;Min_cycle;Max_cycle;Signal;HPM_P1;HPM_P2
2023/02/13 00:00:24;;;;;;;14.18;3.42;;;3.70;99.90;;;;;;5060726;28;20098;-65
2023/02/13 00:04:29;;;;;;;8.48;2.03;;;3.60;99.90;;;;;;5057323;28;20110;-63
2023/02/13 00:08:34;;;;;;;10.02;2.25;;;3.60;99.90;;;;;;5053693;28;20479;-63
2023/02/13 00:12:39;;;;;;;16.52;2.85;;;3.60;99.90;;;;;;5065438;28;20105;-64
2023/02/13 00:16:44;;;;;;;18.33;2.58;;;3.60;99.90;;;;;;5064233;28;20063;-64
2023/02/13 00:20:52;;;;;;;9.35;3.38;;;3.60;99.90;;;;;;5061185;28;20094;-67
2023/02/13 00:24:59;;;;;;;7.28;3.03;;;3.60;99.90;;;;;;5060347;28;20039;-64
2023/02/13 00:29:05;;;;;;;9.82;2.63;;;3.60;99.90;;;;;;5065086;28;20410;-67
2023/02/13 00:45:29;;;;;;;9.13;3.08;;;3.50;99.90;;;;;;4953524;28;22358;-67
2023/02/13 00:47:56;;;;;;;9.57;2.20;;;3.50;99.90;;;;;;5061202;28;20049;-69
2023/02/13 00:50:23;;;;;;;14.80;2.90;;;3.50;99.90;;;;;;5065040;28;20450;-65
2023/02/13 00:52:50;;;;;;;10.77;2.80;;;3.50;99.90;;;;;;5063078;28;20045;-63
2023/02/13 00:55:18;;;;;;;9.57;2.25;;;3.60;99.90;;;;;;5075902;28;20765;-63
2023/02/13 00:57:45;;;;;;;10.48;2.05;;;3.60;99.90;;;;;;5060883;28;20078;-63
2023/02/13 01:00:13;;;;;;;12.85;2.38;;;3.60;99.90;;;;;;5061687;28;20131;-67
2023/02/13 01:02:40;;;;;;;11.52;3.08;;;3.50;99.90;;;;;;5058498;28;20052;-69
2023/02/13 01:05:07;;;;;;;9.68;2.97;;;3.60;99.90;;;;;;5064431;28;20808;-66
2023/02/13 01:07:34;;;;;;;13.15;2.22;;;3.60;99.90;;;;;;5061683;28;20053;-64
2023/02/13 01:10:01;;;;;;;15.88;3.13;;;3.50;99.90;;;;;;5064768;28;20045;-69
2023/02/13 01:12:28;;;;;;;8.00;2.38;;;3.50;99.90;;;;;;5065134;28;20045;-63
2023/02/13 01:14:54;;;;;;;16.52;2.45;;;3.60;99.90;;;;;;5064945;28;20067;-64
2023/02/13 01:17:21;;;;;;;7.38;2.72;;;3.50;99.90;;;;;;5061700;28;20068;-68
2023/02/13 01:19:48;;;;;;;13.52;2.97;;;3.60;99.90;;;;;;5064004;28;20473;-64
2023/02/13 01:22:15;;;;;;;15.90;2.65;;;3.50;99.90;;;;;;5062393;28;20076;-68
2023/02/13 01:24:42;;;;;;;16.70;2.03;;;3.50;99.90;;;;;;5062651;28;20048;-65
2023/02/13 01:27:09;;;;;;;10.18;2.15;;;3.60;99.90;;;;;;5073881;28;20041;-64
2023/02/13 01:29:36;;;;;;;6.18;1.67;;;3.60;99.90;;;;;;5065193;28;20405;-65
2023/02/13 01:32:03;;;;;;;12.10;1.92;;;3.60;99.90;;;;;;5065042;28;20106;-67
2023/02/13 01:34:32;;;;;;;14.20;2.65;;;3.60;99.90;;;;;;5047083;28;20045;-63
2023/02/13 01:36:59;;;;;;;7.68;2.10;;;3.60;99.90;;;;;;5066301;28;20555;-66
2023/02/13 01:39:26;;;;;;;14.80;3.28;;;3.60;99.90;;;;;;5063324;28;20106;-64
2023/02/13 01:41:53;;;;;;;10.75;2.63;;;3.60;99.90;;;;;;5063092;28;20048;-65
2023/02/13 01:44:46;;;;;;;8.60;2.58;;;3.60;99.90;;;;;;5064796;28;20140;-65
2023/02/13 01:47:21;;;;;;;7.07;2.67;;;3.60;99.90;;;;;;5060819;28;20137;-65
2023/02/13 01:49:51;;;;;;;7.93;2.25;;;3.60;99.90;;;;;;5064930;28;20049;-63
2023/02/13 01:52:18;;;;;;;11.70;1.95;;;3.60;99.90;;;;;;5058215;28;20048;-64
2023/02/13 01:54:46;;;;;;;7.88;2.85;;;3.60;99.90;;;;;;5063998;28;20163;-63
2023/02/13 01:57:21;;;;;;;15.10;3.67;;;3.60;99.90;;;;;;5060565;28;20410;-65
2023/02/13 02:00:12;;;;;;;9.48;2.53;;;3.60;99.90;;;;;;5053676;28;20044;-64
2023/02/13 02:03:01;;;;;;;12.05;2.75;;;3.60;99.90;;;;;;5060547;28;20078;-63
2023/02/13 02:05:30;;;;;;;9.88;2.60;;;3.60;99.90;;;;;;5065158;28;20060;-63
2023/02/13 02:07:59;;;;;;;17.23;2.60;;;3.60;99.90;;;;;;5057350;28;20509;-63
2023/02/13 02:10:26;;;;;;;13.15;2.45;;;3.60;99.90;;;;;;5063217;28;20564;-62
2023/02/13 02:12:57;;;;;;;8.88;2.40;;;3.60;99.90;;;;;;5059601;28;20051;-65
2023/02/13 02:15:26;;;;;;;7.28;2.38;;;3.60;99.90;;;;;;5057948;28;20064;-66
2023/02/13 02:17:52;;;;;;;8.57;2.75;;;3.60;99.90;;;;;;5062691;28;20136;-64
2023/02/13 02:20:45;;;;;;;12.95;3.63;;;3.60;99.90;;;;;;5063555;28;20054;-63
2023/02/13 02:23:25;;;;;;;18.77;3.97;;;3.60;99.90;;;;;;5063474;28;20051;-69
2023/02/13 02:26:14;;;;;;;8.32;4.18;;;3.60;99.90;;;;;;5053259;28;20048;-64
2023/02/13 02:29:16;;;;;;;12.02;4.60;;;3.60;99.90;;;;;;5036044;28;20120;-63
2023/02/13 02:32:38;;;;;;;7.97;2.40;;;3.60;99.90;;;;;;5064208;28;20052;-66
2023/02/13 02:35:41;;;;;;;7.40;2.70;;;3.50;99.90;;;;;;4978844;28;20516;-68
2023/02/13 02:38:49;;;;;;;15.43;2.15;;;3.50;99.90;;;;;;5060979;28;20106;-63
2023/02/13 02:41:41;;;;;;;12.18;2.38;;;3.50;99.90;;;;;;5036524;28;20056;-65
2023/02/13 02:45:02;;;;;;;12.23;2.63;;;3.50;99.90;;;;;;5055657;28;20045;-63
2023/02/13 02:50:51;;;;;;;8.02;2.58;;;3.50;99.90;;;;;;5059973;28;20045;-63
2023/02/13 02:53:41;;;;;;;8.65;3.25;;;3.50;99.90;;;;;;5062023;28;20044;-64
2023/02/13 02:56:19;;;;;;;12.45;2.95;;;3.50;99.90;;;;;;5072567;28;20222;-66
2023/02/13 03:07:40;;;;;;;13.25;2.83;;;3.50;99.90;;;;;;5063601;28;20124;-64
2023/02/13 03:13:20;;;;;;;12.05;4.40;;;3.50;99.90;;;;;;5063462;28;20052;-66
2023/02/13 03:25:05;;;;;;;8.83;2.70;;;3.60;99.90;;;;;;5063205;28;20080;-65
2023/02/13 03:30:58;;;;;;;12.95;3.67;;;3.60;99.90;;;;;;5057327;28;20048;-63
2023/02/13 03:33:37;;;;;;;5.65;2.70;;;3.60;99.90;;;;;;5060467;28;20390;-64
2023/02/13 03:39:21;;;;;;;10.13;3.70;;;3.50;99.90;;;;;;5061585;28;20060;-63
2023/02/13 03:41:53;;;;;;;7.50;3.50;;;3.50;99.90;;;;;;5062898;28;20502;-64
2023/02/13 03:44:37;;;;;;;12.40;3.10;;;3.50;99.90;;;;;;5059959;28;20152;-63
2023/02/13 03:47:07;;;;;;;9.73;2.28;;;3.50;99.90;;;;;;5062161;28;20483;-64
2023/02/13 03:50:04;;;;;;;13.57;3.20;;;3.50;99.90;;;;;;5061722;28;20059;-67
2023/02/13 03:52:39;;;;;;;12.00;2.35;;;3.50;99.90;;;;;;5060874;28;20304;-64
2023/02/13 04:00:56;;;;;;;15.88;2.92;;;3.50;99.90;;;;;;5065121;28;20046;-64
2023/02/13 04:03:36;;;;;;;7.82;2.88;;;3.50;99.90;;;;;;5062480;28;20041;-64
2023/02/13 04:06:10;;;;;;;9.48;2.72;;;3.50;99.90;;;;;;5058753;28;20542;-66
2023/02/13 04:08:37;;;;;;;10.35;3.75;;;3.50;99.90;;;;;;5063525;28;20056;-62
2023/02/13 04:11:23;;;;;;;12.75;2.75;;;3.50;99.90;;;;;;5064788;28;20049;-64
2023/02/13 04:13:57;;;;;;;9.80;2.50;;;3.50;99.90;;;;;;5057454;28;20577;-64
2023/02/13 04:16:29;;;;;;;9.65;3.38;;;3.50;99.90;;;;;;5063301;28;20102;-65
2023/02/13 04:18:58;;;;;;;11.50;3.08;;;3.50;99.90;;;;;;5059963;28;20052;-64
2023/02/13 04:21:25;;;;;;;13.02;3.08;;;3.50;99.90;;;;;;5064267;28;20040;-65
2023/02/13 04:23:52;;;;;;;10.05;2.67;;;3.50;99.90;;;;;;5059595;28;20092;-69
2023/02/13 04:26:22;;;;;;;6.88;2.95;;;3.50;99.90;;;;;;5062223;28;20099;-68
2023/02/13 04:28:48;;;;;;;6.05;2.85;;;3.50;99.90;;;;;;5062006;28;20087;-67
2023/02/13 04:31:15;;;;;;;6.13;2.80;;;3.50;99.90;;;;;;5061014;28;20055;-63
2023/02/13 04:33:42;;;;;;;11.45;4.97;;;3.50;99.90;;;;;;5063674;28;20044;-63
2023/02/13 04:36:09;;;;;;;12.05;3.03;;;3.50;99.90;;;;;;5059933;28;20543;-65
2023/02/13 04:38:36;;;;;;;11.48;3.63;;;3.50;99.90;;;;;;5067632;28;20124;-63
2023/02/13 04:41:03;;;;;;;15.02;3.50;;;3.50;99.90;;;;;;5068694;28;20053;-66
2023/02/13 04:43:30;;;;;;;9.05;3.63;;;3.50;99.90;;;;;;5066371;28;20123;-66
2023/02/13 04:45:57;;;;;;;10.63;3.35;;;3.50;99.90;;;;;;5067024;28;20135;-63
2023/02/13 04:48:24;;;;;;;11.48;3.10;;;3.50;99.90;;;;;;5064516;28;20036;-64
2023/02/13 04:50:50;;;;;;;10.07;2.85;;;3.50;99.90;;;;;;5067117;28;20403;-68
2023/02/13 04:53:17;;;;;;;7.10;3.72;;;3.50;99.90;;;;;;5064940;28;20067;-64
2023/02/13 04:55:44;;;;;;;12.98;3.47;;;3.50;99.90;;;;;;5064610;28;20136;-65
2023/02/13 04:58:11;;;;;;;16.17;2.97;;;3.40;99.90;;;;;;5063540;28;20048;-64
2023/02/13 05:00:38;;;;;;;11.82;3.72;;;3.50;99.90;;;;;;5064737;28;20079;-63
2023/02/13 05:03:07;;;;;;;15.13;5.72;;;3.50;99.90;;;;;;5067759;28;20048;-63
2023/02/13 05:05:34;;;;;;;10.23;3.50;;;3.50;99.90;;;;;;5067696;28;20155;-68
2023/02/13 05:08:02;;;;;;;10.75;3.58;;;3.50;99.90;;;;;;5063475;28;20578;-66
2023/02/13 05:10:29;;;;;;;8.23;3.65;;;3.50;99.90;;;;;;5067529;28;20051;-63
2023/02/13 05:12:56;;;;;;;7.53;2.45;;;3.50;99.90;;;;;;5067816;28;20131;-68
2023/02/13 05:15:22;;;;;;;11.40;4.30;;;3.50;99.90;;;;;;5067508;28;20055;-64
2023/02/13 05:17:50;;;;;;;6.43;2.60;;;3.50;99.90;;;;;;5065742;28;20140;-65
2023/02/13 05:20:17;;;;;;;7.55;2.70;;;3.50;99.90;;;;;;5067102;28;20058;-64
2023/02/13 05:25:36;;;;;;;9.60;3.40;;;3.50;99.90;;;;;;5067289;28;20391;-63
2023/02/13 05:28:03;;;;;;;9.43;3.50;;;3.50;99.90;;;;;;5065930;28;20495;-67
2023/02/13 05:30:30;;;;;;;8.13;3.08;;;3.50;99.90;;;;;;5064603;28;20044;-64
2023/02/13 05:32:57;;;;;;;6.80;3.00;;;3.50;99.90;;;;;;5067340;28;20049;-64
2023/02/13 05:35:24;;;;;;;8.60;3.65;;;3.50;99.90;;;;;;5067275;28;20139;-65
2023/02/13 05:37:51;;;;;;;7.72;2.92;;;3.50;99.90;;;;;;5062435;28;20052;-66
2023/02/13 05:40:18;;;;;;;12.55;3.33;;;3.50;99.90;;;;;;5064223;28;20679;-65
2023/02/13 05:42:47;;;;;;;9.55;2.65;;;3.50;99.90;;;;;;5065583;28;20401;-64
2023/02/13 05:45:15;;;;;;;21.85;4.55;;;3.50;99.90;;;;;;5066799;28;20098;-64
2023/02/13 05:47:42;;;;;;;11.18;3.28;;;3.50;99.90;;;;;;5066925;28;20066;-63
2023/02/13 05:50:09;;;;;;;11.00;2.90;;;3.50;99.90;;;;;;5064144;28;20070;-63
2023/02/13 05:52:36;;;;;;;16.48;4.45;;;3.50;99.90;;;;;;5065163;28;20044;-64
2023/02/13 05:55:03;;;;;;;8.95;3.22;;;3.50;99.90;;;;;;5063715;28;20053;-69
2023/02/13 05:57:30;;;;;;;9.02;2.75;;;3.50;99.90;;;;;;5065841;28;20044;-64
2023/02/13 06:00:00;;;;;;;9.48;2.70;;;3.50;99.90;;;;;;5061969;28;20478;-64
2023/02/13 06:02:27;;;;;;;6.72;2.40;;;3.50;99.90;;;;;;5066380;28;20052;-64
2023/02/13 06:04:54;;;;;;;9.05;2.80;;;3.50;99.90;;;;;;5067314;28;20447;-64
2023/02/13 06:07:21;;;;;;;9.80;2.88;;;3.50;99.90;;;;;;5066079;28;20059;-65
2023/02/13 06:09:48;;;;;;;11.10;3.17;;;3.50;99.90;;;;;;5065497;28;20520;-63
2023/02/13 06:12:15;;;;;;;6.95;2.70;;;3.50;99.90;;;;;;5063323;28;20043;-65
2023/02/13 06:14:41;;;;;;;11.38;3.30;;;3.50;99.90;;;;;;5063225;28;20459;-63
2023/02/13 06:17:08;;;;;;;9.32;2.38;;;3.60;99.90;;;;;;5079266;28;20047;-63
2023/02/13 06:19:35;;;;;;;7.97;3.08;;;3.50;99.90;;;;;;5065513;28;20087;-64
2023/02/13 06:22:02;;;;;;;10.07;3.00;;;3.50;99.90;;;;;;5041021;28;20075;-66
2023/02/13 06:24:29;;;;;;;6.80;2.58;;;3.50;99.90;;;;;;5061146;28;20048;-64
2023/02/13 06:26:56;;;;;;;11.65;4.45;;;3.50;99.90;;;;;;5061543;28;20991;-64
2023/02/13 06:29:23;;;;;;;8.75;2.17;;;3.50;99.90;;;;;;5064541;28;20045;-63
2023/02/13 06:31:50;;;;;;;4.68;2.28;;;3.50;99.90;;;;;;5063800;28;20044;-65
2023/02/13 06:34:17;;;;;;;8.93;3.50;;;3.50;99.90;;;;;;5064803;28;20052;-63
2023/02/13 06:36:44;;;;;;;9.23;2.60;;;3.50;99.90;;;;;;5063194;28;20055;-64
2023/02/13 06:39:11;;;;;;;8.15;2.88;;;3.50;99.90;;;;;;5060836;28;20505;-66
2023/02/13 06:41:37;;;;;;;9.75;3.60;;;3.50;99.90;;;;;;5063073;28;20082;-63
2023/02/13 06:44:04;;;;;;;7.75;2.72;;;3.50;99.90;;;;;;5060715;28;20056;-65
2023/02/13 06:46:31;;;;;;;8.50;2.65;;;3.50;99.90;;;;;;5065140;28;20042;-64
2023/02/13 06:48:58;;;;;;;16.80;4.20;;;3.60;99.90;;;;;;5059302;28;20045;-63
2023/02/13 06:51:25;;;;;;;9.95;2.92;;;3.50;99.90;;;;;;5063315;28;20052;-64
2023/02/13 06:53:52;;;;;;;8.50;2.92;;;3.60;99.90;;;;;;5062372;28;20733;-64
2023/02/13 06:56:19;;;;;;;9.20;3.30;;;3.60;99.90;;;;;;5063853;28;20053;-65
2023/02/13 06:58:45;;;;;;;4.70;2.80;;;3.60;99.90;;;;;;5059416;28;20043;-64
2023/02/13 07:01:12;;;;;;;6.35;3.00;;;3.60;99.90;;;;;;5061480;28;20561;-64
2023/02/13 07:03:39;;;;;;;8.63;3.13;;;3.60;99.90;;;;;;5063837;28;20048;-65
2023/02/13 07:06:06;;;;;;;10.93;3.25;;;3.60;99.90;;;;;;5060795;28;20151;-63
2023/02/13 07:08:33;;;;;;;4.72;2.22;;;3.70;99.90;;;;;;5062511;28;20499;-65
2023/02/13 07:11:00;;;;;;;10.15;2.55;;;3.70;99.90;;;;;;5062373;28;20048;-65
2023/02/13 07:13:27;;;;;;;11.40;3.00;;;3.70;99.90;;;;;;5063730;28;20053;-65
2023/02/13 07:15:53;;;;;;;16.08;3.78;;;3.80;99.90;;;;;;5058779;28;20499;-64
2023/02/13 07:18:20;;;;;;;7.13;2.85;;;3.80;99.90;;;;;;5063274;28;20040;-67
2023/02/13 07:20:47;;;;;;;15.00;3.03;;;3.80;99.90;;;;;;5061779;28;20074;-65
2023/02/13 07:23:14;;;;;;;9.90;2.75;;;3.80;99.90;;;;;;5063204;28;20045;-65
2023/02/13 07:25:41;;;;;;;9.05;2.17;;;3.80;99.90;;;;;;5062741;28;20044;-63
2023/02/13 07:28:09;;;;;;;8.70;3.17;;;3.90;99.90;;;;;;5062143;28;20560;-66
2023/02/13 07:30:36;;;;;;;9.07;4.10;;;3.90;99.90;;;;;;5057895;28;20521;-65
2023/02/13 07:33:03;;;;;;;9.23;2.35;;;3.90;99.90;;;;;;5062165;28;20118;-64
2023/02/13 07:35:31;;;;;;;5.63;2.70;;;3.90;99.90;;;;;;5062431;28;20123;-64
2023/02/13 07:37:59;;;;;;;11.20;2.60;;;3.90;99.90;;;;;;5063132;28;20045;-66
2023/02/13 07:40:26;;;;;;;8.10;2.83;;;4.00;99.90;;;;;;5061456;28;20044;-61
2023/02/13 07:42:54;;;;;;;15.63;3.47;;;4.00;99.90;;;;;;5062550;28;20147;-62
2023/02/13 07:45:21;;;;;;;10.35;3.05;;;4.00;99.90;;;;;;5061958;28;20367;-66
2023/02/13 07:47:48;;;;;;;14.23;3.47;;;4.00;99.90;;;;;;5062639;28;20119;-64
2023/02/13 07:50:15;;;;;;;10.15;2.45;;;4.00;99.90;;;;;;5057106;28;20720;-67
2023/02/13 07:52:41;;;;;;;12.70;4.63;;;4.00;99.90;;;;;;5061534;28;20127;-67
2023/02/13 07:55:10;;;;;;;17.00;3.08;;;4.00;99.90;;;;;;5060316;28;20049;-64
2023/02/13 07:57:37;;;;;;;10.50;3.75;;;4.00;99.90;;;;;;5059051;28;20054;-71
2023/02/13 08:00:05;;;;;;;9.55;3.38;;;4.10;99.90;;;;;;5058242;28;20094;-68
2023/02/13 08:02:37;;;;;;;5.95;2.20;;;4.10;99.90;;;;;;5059866;28;20135;-64
2023/02/13 08:05:04;;;;;;;8.68;2.70;;;4.10;99.90;;;;;;5063140;28;20048;-69
2023/02/13 08:07:31;;;;;;;8.73;4.47;;;4.10;99.90;;;;;;5062036;28;20140;-64
2023/02/13 08:12:44;;;;;;;7.45;2.58;;;4.10;99.90;;;;;;5066074;28;20067;-65
2023/02/13 08:15:13;;;;;;;7.18;2.85;;;4.20;99.90;;;;;;5065775;28;20052;-64
2023/02/13 08:17:40;;;;;;;16.05;3.17;;;4.20;99.90;;;;;;5066643;28;20130;-65
2023/02/13 08:20:08;;;;;;;11.45;2.78;;;4.20;99.90;;;;;;5062375;28;20059;-65
2023/02/13 08:22:36;;;;;;;9.82;1.95;;;4.20;99.90;;;;;;5065443;28;20054;-64
2023/02/13 08:25:05;;;;;;;6.78;2.10;;;4.30;99.90;;;;;;5062235;28;20051;-67
2023/02/13 08:27:32;;;;;;;15.88;3.10;;;4.30;99.90;;;;;;5060989;28;20059;-68
2023/02/13 08:30:00;;;;;;;4.20;1.92;;;4.30;99.90;;;;;;5063937;28;20061;-67
2023/02/13 08:32:27;;;;;;;9.93;2.53;;;4.30;99.90;;;;;;5066347;28;20057;-63
2023/02/13 08:34:54;;;;;;;10.02;2.50;;;4.40;99.90;;;;;;5065201;28;20521;-63
2023/02/13 08:37:21;;;;;;;12.90;3.45;;;4.40;99.90;;;;;;5063841;28;20059;-64
2023/02/13 08:39:48;;;;;;;8.73;3.28;;;4.30;99.90;;;;;;5067507;28;20658;-65
2023/02/13 08:42:14;;;;;;;9.70;2.55;;;4.30;99.90;;;;;;5065419;28;20048;-63
2023/02/13 08:44:42;;;;;;;7.15;2.47;;;4.40;99.90;;;;;;5065694;28;20040;-63
2023/02/13 08:47:09;;;;;;;13.25;2.92;;;4.40;99.90;;;;;;5064411;28;20079;-64
2023/02/13 08:49:36;;;;;;;6.82;2.88;;;4.40;99.90;;;;;;5067454;28;20048;-64
2023/02/13 08:52:03;;;;;;;9.60;2.35;;;4.40;99.90;;;;;;5062404;28;20036;-65
2023/02/13 08:54:30;;;;;;;12.85;3.17;;;4.50;99.90;;;;;;5066413;28;20043;-65
2023/02/13 08:56:57;;;;;;;5.18;2.75;;;4.50;99.90;;;;;;5065579;28;20040;-64
2023/02/13 08:59:24;;;;;;;7.38;3.25;;;4.50;99.90;;;;;;5064927;28;20135;-65
2023/02/13 09:01:51;;;;;;;9.40;2.10;;;4.60;99.90;;;;;;5064058;28;20048;-64
2023/02/13 09:04:18;;;;;;;11.57;2.60;;;4.60;99.90;;;;;;5062098;28;20637;-65
2023/02/13 09:06:45;;;;;;;9.18;2.90;;;4.60;99.90;;;;;;5064649;28;20540;-64
2023/02/13 09:09:12;;;;;;;12.85;3.22;;;4.60;99.90;;;;;;5063998;28;20044;-65
2023/02/13 09:11:38;;;;;;;9.95;2.25;;;4.60;99.90;;;;;;5066829;28;20139;-64
2023/02/13 09:14:05;;;;;;;3.92;2.60;;;4.60;99.90;;;;;;5059804;28;20471;-64
2023/02/13 09:16:32;;;;;;;11.13;3.40;;;4.60;99.90;;;;;;5064106;28;20051;-65
2023/02/13 09:18:59;;;;;;;6.32;2.13;;;4.60;99.90;;;;;;5060005;28;20051;-64
2023/02/13 09:21:26;;;;;;;10.15;2.65;;;4.70;99.90;;;;;;5066024;28;20068;-63
2023/02/13 09:23:54;;;;;;;7.65;2.88;;;4.70;99.90;;;;;;5060560;28;20406;-65
2023/02/13 09:26:21;;;;;;;9.73;2.10;;;4.70;99.90;;;;;;5065029;28;20722;-64
2023/02/13 09:28:48;;;;;;;8.07;2.55;;;4.70;99.90;;;;;;5067043;28;20056;-64
2023/02/13 09:31:18;;;;;;;8.45;2.22;;;4.70;99.90;;;;;;5066053;28;20055;-63
2023/02/13 09:33:47;;;;;;;8.80;3.50;;;4.70;99.90;;;;;;5063221;28;20056;-65
2023/02/13 09:36:19;;;;;;;8.25;2.45;;;4.60;99.90;;;;;;5061126;28;20135;-64
2023/02/13 09:38:50;;;;;;;6.93;2.13;;;4.60;99.90;;;;;;5057677;28;20565;-65
2023/02/13 09:41:23;;;;;;;8.50;2.47;;;4.60;99.90;;;;;;5062976;28;20094;-69
2023/02/13 09:43:53;;;;;;;6.43;2.22;;;4.60;99.90;;;;;;5063853;28;20052;-65
2023/02/13 09:46:34;;;;;;;20.35;3.63;;;4.60;99.90;;;;;;5066801;28;20598;-65
2023/02/13 09:49:07;;;;;;;9.55;2.83;;;4.60;99.90;;;;;;5062845;28;20048;-65
2023/02/13 09:51:34;;;;;;;12.25;2.28;;;4.60;99.90;;;;;;5065690;28;20076;-64
2023/02/13 09:54:06;;;;;;;7.43;2.15;;;4.60;99.90;;;;;;5059604;28;20044;-64
2023/02/13 09:57:00;;;;;;;12.95;2.85;;;4.50;99.90;;;;;;5065302;28;20159;-65
2023/02/13 09:59:45;;;;;;;11.27;2.70;;;4.60;99.90;;;;;;5061504;28;20052;-64
2023/02/13 10:02:49;;;;;;;8.32;2.35;;;4.60;99.90;;;;;;5061280;28;20072;-64
2023/02/13 10:05:30;;;;;;;11.98;2.90;;;4.60;99.90;;;;;;5066013;28;20163;-63
2023/02/13 10:08:15;;;;;;;;;;;4.60;99.90;;;;;;5065283;28;20075;-64
2023/02/13 10:11:08;;;;;;;8.75;3.60;;;4.60;99.90;;;;;;5063529;28;19921;-64
2023/02/13 10:14:02;;;;;;;9.82;2.70;;;4.60;99.90;;;;;;5064062;28;20552;-68
2023/02/13 10:16:34;;;;;;;11.73;2.67;;;4.60;99.90;;;;;;5060296;28;20044;-66
2023/02/13 10:19:19;;;;;;;13.55;3.20;;;4.70;99.90;;;;;;5063275;28;20544;-64
2023/02/13 10:21:55;;;;;;;5.63;2.78;;;4.70;99.90;;;;;;5065429;28;20138;-66
2023/02/13 10:24:32;;;;;;;9.95;2.08;;;4.70;99.90;;;;;;5061548;28;20117;-66
2023/02/13 10:27:15;;;;;;;11.15;2.00;;;4.60;99.90;;;;;;5062085;28;20692;-67
2023/02/13 10:30:03;;;;;;;8.50;2.00;;;4.60;99.90;;;;;;5064758;28;20072;-65
2023/02/13 10:32:37;;;;;;;6.72;2.63;;;4.70;99.90;;;;;;5061644;28;20389;-67
2023/02/13 10:35:23;;;;;;;4.00;1.88;;;4.70;99.90;;;;;;5065696;28;20079;-64
2023/02/13 10:37:53;;;;;;;11.15;2.50;;;4.70;99.90;;;;;;5064622;28;20084;-69
2023/02/13 10:40:26;;;;;;;7.53;2.13;;;4.80;99.90;;;;;;5063078;28;20055;-63
2023/02/13 10:43:19;;;;;;;6.80;2.17;;;4.80;99.90;;;;;;5062299;28;20514;-62
2023/02/13 10:45:54;;;;;;;4.63;1.55;;;4.80;99.90;;;;;;5065892;28;20093;-64
2023/02/13 10:48:21;;;;;;;11.63;2.35;;;4.80;99.90;;;;;;5061203;28;20044;-62
2023/02/13 10:51:23;;;;;;;11.70;1.98;;;4.80;99.90;;;;;;5060550;28;20044;-65
2023/02/13 10:54:09;;;;;;;9.43;3.42;;;4.80;99.90;;;;;;5028291;28;20401;-64
2023/02/13 10:57:01;;;;;;;12.93;2.03;;;4.80;99.90;;;;;;5065567;28;20052;-62
2023/02/13 10:59:52;;;;;;;12.10;2.40;;;4.80;99.90;;;;;;5059920;28;20078;-63
2023/02/13 11:02:25;;;;;;;9.55;2.15;;;4.90;99.90;;;;;;5063995;28;20121;-64
2023/02/13 11:04:59;;;;;;;5.18;1.52;;;4.90;99.90;;;;;;5065757;28;20078;-63
2023/02/13 11:07:27;;;;;;;6.38;2.00;;;4.90;99.90;;;;;;5060806;28;20138;-65
2023/02/13 11:10:00;;;;;;;8.23;2.40;;;4.90;99.90;;;;;;5056429;28;20094;-66
2023/02/13 11:12:31;;;;;;;7.65;2.60;;;4.90;99.90;;;;;;5065034;28;20528;-68
2023/02/13 11:15:04;;;;;;;9.95;2.42;;;4.90;99.90;;;;;;5061167;28;20481;-64
2023/02/13 11:17:35;;;;;;;8.00;3.30;;;4.90;99.90;;;;;;5065230;28;20131;-65
2023/02/13 11:20:25;;;;;;;6.15;2.15;;;4.90;99.90;;;;;;5060507;28;20537;-64
2023/02/13 11:22:53;;;;;;;5.80;1.70;;;4.90;99.90;;;;;;5063213;28;20057;-65
2023/02/13 11:25:30;;;;;;;6.78;2.33;;;4.90;99.90;;;;;;5063732;28;20049;-64
2023/02/13 11:28:28;;;;;;;6.30;2.10;;;5.00;99.90;;;;;;5062255;28;20247;-64
2023/02/13 11:31:22;;;;;;;11.50;2.33;;;5.00;99.90;;;;;;5048805;28;20133;-66
2023/02/13 11:33:49;;;;;;;11.20;1.80;;;5.10;99.90;;;;;;5059436;28;20552;-64
2023/02/13 11:36:25;;;;;;;6.65;2.15;;;5.10;99.90;;;;;;5059949;28;20703;-64
2023/02/13 11:39:05;;;;;;;10.60;2.15;;;5.10;99.90;;;;;;5063419;28;20056;-64
2023/02/13 11:41:40;;;;;;;7.65;1.77;;;5.10;99.90;;;;;;5061907;28;20099;-65
2023/02/13 11:44:19;;;;;;;7.28;2.10;;;5.20;99.90;;;;;;5062859;28;20049;-63
2023/02/13 11:46:48;;;;;;;6.60;2.10;;;5.20;99.90;;;;;;5063567;28;20114;-64
2023/02/13 11:49:23;;;;;;;4.47;2.00;;;5.20;99.90;;;;;;5068084;28;20476;-64
2023/02/13 11:51:53;;;;;;;6.68;1.80;;;5.30;99.90;;;;;;5066938;28;20127;-66
2023/02/13 11:54:43;;;;;;;6.80;1.83;;;5.30;99.90;;;;;;5065350;28;20040;-64
2023/02/13 11:57:35;;;;;;;6.68;2.25;;;5.30;99.90;;;;;;5065145;28;20127;-64
2023/02/13 12:00:36;;;;;;;3.70;1.88;;;5.30;99.90;;;;;;5063469;28;20063;-64
2023/02/13 12:03:25;;;;;;;5.15;1.67;;;5.40;99.90;;;;;;5056388;28;20230;-64
2023/02/13 12:06:12;;;;;;;10.68;1.65;;;5.40;99.90;;;;;;5062221;28;20053;-63
2023/02/13 12:08:42;;;;;;;6.90;2.13;;;5.50;99.90;;;;;;5067899;28;20541;-63
2023/02/13 12:11:33;;;;;;;16.10;2.33;;;5.50;99.90;;;;;;5066986;28;20048;-65
2023/02/13 12:14:01;;;;;;;6.72;2.25;;;5.60;99.90;;;;;;5065099;28;20366;-66
2023/02/13 12:16:41;;;;;;;10.10;1.90;;;5.60;99.90;;;;;;5065760;28;20501;-63
2023/02/13 12:19:15;;;;;;;10.45;2.67;;;5.60;99.90;;;;;;5063637;28;20135;-63
2023/02/13 12:21:48;;;;;;;10.15;2.40;;;5.70;99.90;;;;;;5066011;28;20139;-63
2023/02/13 12:25:08;;;;;;;5.82;1.80;;;5.80;99.90;;;;;;5063410;28;20064;-63
2023/02/13 12:28:09;;;;;;;8.37;2.10;;;5.80;99.90;;;;;;5064266;28;20119;-63
2023/02/13 12:30:48;;;;;;;5.53;1.98;;;5.80;99.90;;;;;;5063773;28;20479;-63
2023/02/13 12:33:39;;;;;;;10.82;2.67;;;5.80;99.90;;;;;;5062886;28;20055;-65
2023/02/13 12:36:42;;;;;;;9.73;2.35;;;5.90;99.90;;;;;;5062926;28;20054;-62
2023/02/13 12:39:12;;;;;;;9.80;2.47;;;5.90;99.90;;;;;;5062930;28;20044;-62
2023/02/13 12:41:47;;;;;;;7.22;4.20;;;5.80;99.90;;;;;;5068075;28;20063;-63
2023/02/13 12:44:44;;;;;;;10.38;2.92;;;5.90;99.90;;;;;;5064474;28;20044;-65
2023/02/13 12:47:26;;;;;;;7.82;1.75;;;5.90;99.90;;;;;;5067048;28;20048;-64
2023/02/13 12:49:59;;;;;;;11.25;3.42;;;5.90;99.90;;;;;;5062577;28;20494;-64
2023/02/13 12:52:49;;;;;;;7.93;2.22;;;6.00;99.90;;;;;;5066234;28;20048;-63
2023/02/13 12:55:44;;;;;;;8.05;1.77;;;6.00;99.90;;;;;;5065975;28;20446;-65
2023/02/13 12:58:26;;;;;;;9.68;2.60;;;6.10;99.90;;;;;;5063325;28;20051;-66
2023/02/13 13:01:18;;;;;;;7.68;2.10;;;6.00;99.90;;;;;;5066194;28;20076;-67
2023/02/13 13:03:57;;;;;;;13.93;2.72;;;6.00;99.90;;;;;;5080463;28;20058;-63
2023/02/13 13:06:31;;;;;;;10.98;1.90;;;6.00;99.90;;;;;;5063902;28;20045;-63
2023/02/13 13:10:02;;;;;;;3.60;1.35;;;6.10;99.90;;;;;;5064935;28;20056;-64
2023/02/13 13:12:42;;;;;;;8.20;1.13;;;6.10;99.90;;;;;;4977481;28;20042;-62
2023/02/13 13:15:36;;;;;;;6.15;1.58;;;6.10;99.90;;;;;;4996441;28;20177;-63
2023/02/13 13:18:30;;;;;;;6.70;2.25;;;6.10;99.90;;;;;;5060678;28;20052;-66
2023/02/13 13:21:06;;;;;;;7.57;1.95;;;6.10;99.90;;;;;;5067028;28;20049;-64
2023/02/13 13:23:59;;;;;;;10.05;2.50;;;6.20;99.90;;;;;;5067031;28;20045;-64
2023/02/13 13:26:40;;;;;;;19.38;3.90;;;6.10;99.90;;;;;;5060349;28;20094;-62
2023/02/13 13:29:17;;;;;;;12.40;2.05;;;6.10;99.90;;;;;;5063574;28;20101;-66
2023/02/13 13:31:59;;;;;;;9.32;2.60;;;6.00;99.90;;;;;;5062815;28;20422;-63
2023/02/13 13:34:29;;;;;;;3.35;1.88;;;5.90;99.90;;;;;;5063560;28;20051;-63
2023/02/13 13:37:04;;;;;;;6.50;1.85;;;5.80;99.90;;;;;;5063064;28;20049;-67
2023/02/13 13:39:49;;;;;;;5.82;2.05;;;5.70;99.90;;;;;;5065254;28;20041;-63
2023/02/13 13:42:39;;;;;;;6.75;2.92;;;5.70;99.90;;;;;;5062218;28;20062;-64
2023/02/13 13:45:33;;;;;;;14.05;2.75;;;5.60;99.90;;;;;;5060470;28;20044;-64
2023/02/13 13:48:00;;;;;;;6.97;1.48;;;5.60;99.90;;;;;;5062357;28;20044;-69
2023/02/13 13:50:30;;;;;;;11.40;1.83;;;5.70;99.90;;;;;;5062756;28;20728;-63
2023/02/13 13:53:06;;;;;;;;;;;5.60;99.90;;;;;;5061865;28;20092;-68
2023/02/13 13:56:12;;;;;;;6.72;1.85;;;5.70;99.90;;;;;;5061471;28;19962;-66
2023/02/13 13:58:44;;;;;;;10.48;3.28;;;5.70;99.90;;;;;;5064006;28;20395;-65
2023/02/13 14:01:18;;;;;;;7.00;2.40;;;5.60;99.90;;;;;;5065318;28;20098;-65
2023/02/13 14:03:49;;;;;;;14.27;3.03;;;5.60;99.90;;;;;;5059219;28;20060;-66
2023/02/13 14:06:19;;;;;;;13.25;2.92;;;5.70;99.90;;;;;;5062371;28;20651;-66
2023/02/13 14:09:02;;;;;;;14.57;3.55;;;5.70;99.90;;;;;;5064279;28;20136;-66
2023/02/13 14:11:31;;;;;;;9.10;2.25;;;5.70;99.90;;;;;;5064255;28;20050;-67
2023/02/13 14:13:59;;;;;;;14.03;1.60;;;5.70;99.90;;;;;;5061127;28;20049;-65
2023/02/13 14:17:01;;;;;;;7.50;1.70;;;5.70;99.90;;;;;;5065461;28;20136;-69
2023/02/13 14:19:37;;;;;;;3.22;1.10;;;5.70;99.90;;;;;;5050484;28;20049;-65
2023/02/13 14:22:19;;;;;;;9.63;2.28;;;5.70;99.90;;;;;;5061527;28;20071;-65
2023/02/13 14:24:57;;;;;;;9.85;2.22;;;5.70;99.90;;;;;;5063572;28;20057;-65
2023/02/13 14:27:28;;;;;;;15.82;2.90;;;5.60;99.90;;;;;;5062782;28;20049;-62
2023/02/13 14:29:56;;;;;;;6.50;2.33;;;5.70;99.90;;;;;;5060258;28;20058;-63
2023/02/13 14:32:32;;;;;;;7.22;2.15;;;5.60;99.90;;;;;;5063021;28;20052;-64
2023/02/13 14:35:03;;;;;;;11.43;2.20;;;5.50;99.90;;;;;;5061447;28;20049;-62